createdAt,value
2023-09-04T00:01:14.494Z,10.07
2023-09-04T00:03:41.238Z,10.03
2023-09-04T00:06:08.007Z,8.20
2023-09-04T00:08:34.731Z,9.30
2023-09-04T00:11:01.450Z,9.23
2023-09-04T00:13:28.181Z,10.77
2023-09-04T00:15:57.355Z,8.23
2023-09-04T00:18:25.930Z,8.20
2023-09-04T00:20:53.338Z,15.27
2023-09-04T00:23:20.249Z,8.90
2023-09-04T00:25:47.400Z,10.87
2023-09-04T00:28:14.596Z,8.07
2023-09-04T00:30:43.732Z,12.53
2023-09-04T00:33:10.503Z,11.37
2023-09-04T00:35:37.194Z,11.17
2023-09-04T00:38:04.132Z,9.53
2023-09-04T00:40:30.926Z,8.40
2023-09-04T00:42:57.649Z,8.60
2023-09-04T00:45:24.444Z,9.10
2023-09-04T00:47:51.920Z,8.93
2023-09-04T00:50:26.114Z,8.43
2023-09-04T00:52:57.546Z,9.47
2023-09-04T00:55:25.356Z,14.23
2023-09-04T00:57:53.454Z,9.17
2023-09-04T01:00:23.544Z,11.63
2023-09-04T01:02:51.671Z,9.90
2023-09-04T01:05:18.623Z,8.73
2023-09-04T01:07:45.729Z,9.47
2023-09-04T01:10:14.272Z,8.17
2023-09-04T01:12:51.717Z,9.10
2023-09-04T01:15:18.787Z,10.87
2023-09-04T01:17:46.590Z,7.77
2023-09-04T01:20:24.460Z,8.33
2023-09-04T01:22:51.678Z,9.13
2023-09-04T01:25:19.115Z,11.87
2023-09-04T01:27:56.528Z,6.80
2023-09-04T01:30:37.908Z,6.93
2023-09-04T01:33:09.978Z,7.33
2023-09-04T01:35:37.684Z,7.33
2023-09-04T01:38:05.183Z,6.83
2023-09-04T01:40:32.793Z,7.53
2023-09-04T01:42:59.481Z,9.57
2023-09-04T01:45:26.168Z,8.37
2023-09-04T01:47:52.879Z,7.40
2023-09-04T01:50:19.595Z,7.33
2023-09-04T01:52:46.295Z,8.53
2023-09-04T01:55:13.096Z,9.57
2023-09-04T01:57:39.838Z,10.80
2023-09-04T02:00:07.385Z,8.40
2023-09-04T02:02:34.186Z,8.10
2023-09-04T02:05:00.942Z,8.77
2023-09-04T02:07:27.647Z,8.40
2023-09-04T02:09:54.461Z,9.60
2023-09-04T02:12:21.619Z,9.27
2023-09-04T02:14:48.464Z,8.43
2023-09-04T02:17:15.187Z,8.23
2023-09-04T02:19:41.942Z,8.50
2023-09-04T02:22:08.697Z,9.00
2023-09-04T02:24:35.416Z,7.90
2023-09-04T02:27:02.108Z,8.83
2023-09-04T02:29:30.709Z,7.57
2023-09-04T02:31:57.503Z,7.03
2023-09-04T02:34:24.183Z,8.17
2023-09-04T02:36:50.900Z,8.57
2023-09-04T02:39:17.752Z,7.33
2023-09-04T02:41:44.454Z,6.73
2023-09-04T02:44:11.180Z,9.80
2023-09-04T02:46:37.916Z,9.73
2023-09-04T02:49:04.654Z,7.87
2023-09-04T02:51:31.357Z,7.07
2023-09-04T02:53:58.017Z,7.10
2023-09-04T02:56:24.716Z,6.57
2023-09-04T02:58:51.397Z,6.53
2023-09-04T03:01:18.410Z,7.77
2023-09-04T03:03:45.184Z,9.67
2023-09-04T03:06:12.098Z,7.53
2023-09-04T03:08:39.517Z,8.63
2023-09-04T03:11:14.676Z,7.73
2023-09-04T03:13:41.489Z,7.87
2023-09-04T03:16:08.428Z,7.30
2023-09-04T03:18:35.574Z,8.10
2023-09-04T03:21:03.073Z,10.00
2023-09-04T03:23:29.755Z,8.20
2023-09-04T03:25:57.660Z,10.30
2023-09-04T03:28:24.472Z,8.60
2023-09-04T03:30:51.353Z,8.70
2023-09-04T03:33:18.101Z,8.00
2023-09-04T03:35:44.958Z,7.83
2023-09-04T03:38:11.649Z,7.40
2023-09-04T03:40:38.592Z,7.90
2023-09-04T03:43:05.340Z,8.77
2023-09-04T03:45:35.643Z,7.87
2023-09-04T03:48:03.735Z,10.00
2023-09-04T03:50:30.601Z,8.40
2023-09-04T03:52:57.534Z,9.37
2023-09-04T03:55:25.345Z,8.30
2023-09-04T03:57:52.788Z,9.33
2023-09-04T04:00:20.145Z,9.83
2023-09-04T04:02:49.240Z,8.63
2023-09-04T04:05:17.189Z,8.53
2023-09-04T04:07:44.005Z,10.43
2023-09-04T04:10:11.391Z,9.30
2023-09-04T04:12:38.700Z,8.20
2023-09-04T04:15:07.513Z,7.93
2023-09-04T04:17:35.508Z,7.63
2023-09-04T04:20:04.601Z,7.40
2023-09-04T04:22:31.307Z,7.33
2023-09-04T04:24:58.003Z,6.93
2023-09-04T04:27:24.758Z,6.83
2023-09-04T04:29:53.558Z,7.70
2023-09-04T04:32:20.305Z,7.23
2023-09-04T04:34:46.986Z,7.10
2023-09-04T04:37:14.367Z,7.00
2023-09-04T04:39:41.075Z,6.97
2023-09-04T04:42:07.748Z,6.50
2023-09-04T04:44:34.474Z,7.47
2023-09-04T04:47:01.153Z,7.03
2023-09-04T04:49:27.870Z,7.27
2023-09-04T04:51:55.725Z,6.80
2023-09-04T04:54:22.518Z,7.40
2023-09-04T04:56:50.254Z,7.20
2023-09-04T04:59:17.382Z,7.67
2023-09-04T05:01:44.366Z,7.07
2023-09-04T10:27:09.590Z,1.50
2023-09-04T10:29:47.904Z,4.50
2023-09-04T10:32:15.196Z,3.38
2023-09-04T10:34:42.672Z,2.38
2023-09-04T10:37:11.566Z,2.22
2023-09-04T10:39:40.319Z,2.10
2023-09-04T10:42:08.156Z,2.15
2023-09-04T10:44:52.323Z,3.55
2023-09-04T10:47:20.084Z,1.52
2023-09-04T10:49:47.925Z,2.13
2023-09-04T10:52:15.889Z,1.55
2023-09-04T10:54:43.068Z,1.92
2023-09-04T10:57:14.349Z,2.70
2023-09-04T10:59:56.897Z,2.58
2023-09-04T11:02:35.115Z,3.33
2023-09-04T11:05:03.427Z,1.88
2023-09-04T11:07:38.090Z,2.13
2023-09-04T11:10:07.829Z,2.05
2023-09-04T11:12:37.343Z,1.33
2023-09-04T11:15:15.009Z,1.63
2023-09-04T11:17:45.876Z,1.75
2023-09-04T11:20:16.185Z,2.42
2023-09-04T11:22:50.331Z,2.97
2023-09-04T11:25:18.511Z,3.53
2023-09-04T11:27:46.845Z,3.38
2023-09-04T11:30:15.166Z,2.20
2023-09-04T11:32:42.880Z,3.25
2023-09-04T11:35:15.325Z,1.50
2023-09-04T11:37:43.503Z,1.35
2023-09-04T11:40:11.922Z,3.90
2023-09-04T11:42:40.089Z,2.92
2023-09-04T11:45:07.353Z,6.22
2023-09-04T11:47:34.782Z,1.83
2023-09-04T11:50:01.696Z,2.90
2023-09-04T11:52:29.692Z,3.22
2023-09-04T11:54:56.980Z,1.95
2023-09-04T11:57:23.927Z,2.13
2023-09-04T11:59:50.940Z,2.78
2023-09-04T12:02:17.801Z,2.38
2023-09-04T12:04:46.467Z,2.03
2023-09-04T12:07:14.782Z,4.97
2023-09-04T12:09:42.176Z,2.40
2023-09-04T12:12:09.172Z,1.77
2023-09-04T12:14:36.763Z,3.47
2023-09-04T12:17:11.889Z,2.10
2023-09-04T12:19:38.831Z,1.65
2023-09-04T12:22:16.250Z,3.83
2023-09-04T12:25:05.262Z,2.08
2023-09-04T12:27:40.284Z,1.85
2023-09-04T12:30:09.903Z,2.00
2023-09-04T12:32:38.538Z,3.40
2023-09-04T12:35:07.393Z,2.03
2023-09-04T12:37:35.262Z,1.60
2023-09-04T12:40:02.087Z,1.83
2023-09-04T12:42:28.856Z,2.55
2023-09-04T12:44:56.154Z,3.80
2023-09-04T12:47:23.137Z,1.55
2023-09-04T12:49:50.534Z,2.67
2023-09-04T12:52:17.366Z,1.50
2023-09-04T12:54:44.185Z,3.05
2023-09-04T12:57:10.973Z,2.78
2023-09-04T12:59:38.852Z,2.70
2023-09-04T13:02:06.115Z,3.03
2023-09-04T13:04:33.236Z,3.60
2023-09-04T13:07:02.234Z,1.83
2023-09-04T13:09:29.574Z,1.70
2023-09-04T13:11:57.652Z,2.97
2023-09-04T13:14:24.573Z,2.47
2023-09-04T13:16:51.661Z,4.30
2023-09-04T13:19:18.532Z,2.55
2023-09-04T13:21:45.304Z,2.30
2023-09-04T13:24:12.560Z,3.40
2023-09-04T13:26:39.338Z,2.25
2023-09-04T13:29:06.174Z,2.00
2023-09-04T13:31:32.915Z,3.88
2023-09-04T13:33:59.657Z,2.50
2023-09-04T13:36:26.421Z,2.95
2023-09-04T13:38:53.202Z,3.67
2023-09-04T13:41:19.969Z,4.30
2023-09-04T13:43:46.787Z,4.38
2023-09-04T13:46:13.728Z,1.55
2023-09-04T13:48:40.478Z,4.03
2023-09-04T13:51:08.026Z,2.05
2023-09-04T13:53:34.764Z,4.45
2023-09-04T13:56:01.567Z,2.38
2023-09-04T13:58:28.352Z,2.53
2023-09-04T14:00:55.188Z,1.30
2023-09-04T14:03:22.093Z,3.05
2023-09-04T14:05:51.503Z,3.80
2023-09-04T14:08:18.454Z,2.38
2023-09-04T14:10:45.294Z,1.40
2023-09-04T14:13:12.059Z,2.35
2023-09-04T14:15:40.289Z,1.60
2023-09-04T14:18:07.372Z,2.30
2023-09-04T14:20:34.429Z,2.85
2023-09-04T14:23:01.137Z,1.92
2023-09-04T14:25:28.674Z,3.03
2023-09-04T14:27:56.151Z,1.95
2023-09-04T14:30:22.920Z,2.65
2023-09-04T15:46:17.725Z,2.35
2023-09-04T15:48:44.576Z,2.30
2023-09-04T15:51:11.329Z,2.00
2023-09-04T15:53:38.809Z,2.65
2023-09-04T15:56:05.896Z,2.35
2023-09-04T15:58:32.720Z,1.90
2023-09-04T16:01:01.255Z,2.85
2023-09-04T17:29:45.384Z,2.05
2023-09-04T17:32:12.228Z,3.25
2023-09-04T17:34:39.062Z,1.65
2023-09-04T17:37:06.397Z,1.75
2023-09-04T17:39:33.249Z,2.10
2023-09-04T17:42:00.060Z,2.08
2023-09-04T17:44:26.903Z,1.70
2023-09-04T17:46:53.806Z,2.70
2023-09-04T17:49:20.615Z,3.03
2023-09-04T17:51:47.325Z,5.25
2023-09-04T17:54:14.114Z,3.17
2023-09-04T17:56:40.919Z,2.78
2023-09-04T17:59:07.778Z,2.10
2023-09-04T18:01:34.617Z,2.25
2023-09-04T18:04:01.958Z,2.03
2023-09-04T18:06:29.136Z,3.10
2023-09-04T18:08:56.049Z,3.08
2023-09-04T18:11:22.985Z,2.75
2023-09-04T18:13:49.866Z,3.20
2023-09-04T18:16:20.191Z,4.50
2023-09-04T18:18:47.136Z,2.42
2023-09-04T18:21:17.261Z,4.38
2023-09-04T18:23:45.212Z,2.83
2023-09-04T18:26:12.904Z,3.83
2023-09-04T18:28:40.370Z,2.65
2023-09-04T18:31:14.461Z,5.13
2023-09-04T18:33:41.416Z,3.25
2023-09-04T18:36:09.670Z,2.95
2023-09-04T18:38:36.400Z,3.42
2023-09-04T18:41:09.861Z,4.15
2023-09-04T18:43:37.126Z,2.83
2023-09-04T18:46:05.137Z,2.53
2023-09-04T18:48:32.650Z,4.10
2023-09-04T18:50:59.975Z,3.90
2023-09-04T18:53:26.993Z,4.28
2023-09-04T18:55:58.074Z,2.65
2023-09-04T18:58:26.428Z,4.20
2023-09-04T19:01:01.343Z,4.22
2023-09-04T19:03:28.830Z,4.03
2023-09-04T19:05:55.860Z,3.10
2023-09-04T19:08:25.401Z,4.45
2023-09-04T19:10:53.909Z,4.65
2023-09-04T19:13:21.134Z,3.85
2023-09-04T19:15:47.984Z,3.97
2023-09-04T19:18:15.497Z,4.43
2023-09-04T19:20:42.650Z,4.78
2023-09-04T19:23:09.766Z,4.05
2023-09-04T19:25:36.525Z,3.03
2023-09-04T19:28:03.918Z,5.18
2023-09-04T19:30:31.746Z,2.50
2023-09-04T19:32:59.167Z,2.72
2023-09-04T19:35:26.286Z,4.05
2023-09-04T19:37:53.193Z,3.17
2023-09-04T19:40:20.122Z,4.68
2023-09-04T19:42:47.079Z,5.35
2023-09-04T19:45:15.466Z,2.80
2023-09-04T19:47:44.082Z,3.22
2023-09-04T19:50:11.222Z,5.18
2023-09-04T19:52:38.092Z,5.47
2023-09-04T19:55:05.523Z,4.75
2023-09-04T19:57:34.657Z,2.50
2023-09-04T20:00:06.382Z,4.40
2023-09-04T20:02:34.148Z,3.35
2023-09-04T20:05:01.226Z,6.53
2023-09-04T20:07:30.136Z,3.15
2023-09-04T20:09:58.125Z,4.40
2023-09-04T20:12:24.994Z,6.20
2023-09-04T20:14:51.911Z,3.33
2023-09-04T20:17:18.709Z,3.45
2023-09-04T20:19:45.562Z,3.88
2023-09-04T20:22:12.423Z,4.15
2023-09-04T20:24:39.227Z,2.83
2023-09-04T20:27:07.168Z,3.35
2023-09-04T20:29:33.972Z,3.17
2023-09-04T20:32:00.666Z,5.25
2023-09-04T20:34:27.418Z,5.53
2023-09-04T20:36:56.982Z,3.92
2023-09-04T20:39:24.127Z,2.45
2023-09-04T20:41:50.848Z,3.67
2023-09-04T20:44:17.611Z,5.72
2023-09-04T20:46:44.472Z,8.65
2023-09-04T20:49:11.330Z,6.17
2023-09-04T20:51:38.069Z,4.70
2023-09-04T20:54:04.915Z,5.97
2023-09-04T20:56:31.656Z,4.22
2023-09-04T20:58:58.404Z,5.00
2023-09-04T21:01:25.213Z,4.00
2023-09-04T21:03:51.927Z,5.03
2023-09-04T21:06:18.684Z,3.90
2023-09-04T21:08:45.368Z,6.03
2023-09-04T21:11:12.159Z,4.13
2023-09-04T21:13:57.328Z,4.23
2023-09-04T21:16:42.961Z,3.43
2023-09-04T21:19:28.421Z,3.20
2023-09-04T21:22:13.962Z,6.63
2023-09-04T21:24:59.794Z,3.87
2023-09-04T21:27:45.031Z,3.30
2023-09-04T21:30:30.372Z,3.73
2023-09-04T21:33:15.829Z,2.87
2023-09-04T21:36:01.326Z,5.07
2023-09-04T21:38:46.864Z,6.13
2023-09-04T21:41:32.241Z,3.87
2023-09-04T21:44:17.765Z,4.00
2023-09-04T21:47:03.185Z,4.70
2023-09-04T21:49:48.783Z,4.00
2023-09-04T21:52:34.265Z,4.77
2023-09-04T21:55:19.659Z,7.60
2023-09-04T21:58:05.238Z,5.87
2023-09-04T22:00:50.606Z,6.63
2023-09-04T22:03:36.310Z,4.90
2023-09-04T22:06:21.969Z,7.87
2023-09-04T22:09:07.406Z,4.40
2023-09-04T22:11:53.010Z,6.70
2023-09-04T22:14:38.347Z,5.77
2023-09-04T22:17:23.954Z,5.70
2023-09-04T22:20:09.415Z,5.83
2023-09-04T22:22:54.999Z,4.57
2023-09-04T22:25:40.557Z,8.40
2023-09-04T22:28:26.658Z,6.43
2023-09-04T22:31:12.338Z,7.30
2023-09-04T22:33:57.884Z,5.27
2023-09-04T22:36:43.385Z,6.43
2023-09-04T22:39:28.969Z,6.97
2023-09-04T22:42:14.408Z,5.40
2023-09-04T22:45:00.142Z,6.53
2023-09-04T22:47:45.760Z,8.23
2023-09-04T22:50:31.316Z,4.90
2023-09-04T22:53:16.772Z,6.73
2023-09-04T22:56:02.169Z,5.87
2023-09-04T22:58:47.817Z,5.30
2023-09-04T23:01:33.498Z,6.20
2023-09-04T23:04:19.078Z,5.40
2023-09-04T23:07:04.672Z,8.60
2023-09-04T23:09:50.195Z,5.97
2023-09-04T23:12:35.687Z,7.30
2023-09-04T23:15:22.196Z,5.67
2023-09-04T23:18:07.778Z,6.43
2023-09-04T23:20:53.463Z,5.90
2023-09-04T23:23:22.897Z,6.63
2023-09-04T23:25:49.835Z,4.83
2023-09-04T23:28:19.368Z,8.63
2023-09-04T23:30:47.093Z,5.60
2023-09-04T23:33:16.923Z,5.23
2023-09-04T23:36:03.997Z,5.80
2023-09-04T23:38:31.294Z,4.10
2023-09-04T23:41:16.762Z,6.50
2023-09-04T23:44:03.825Z,4.40
2023-09-04T23:46:31.127Z,4.50
2023-09-04T23:48:57.855Z,6.23
2023-09-04T23:51:24.615Z,4.70
2023-09-04T23:53:51.633Z,5.90
2023-09-04T23:56:19.205Z,4.57
2023-09-04T23:58:47.498Z,10.37
